Aviation Digital Data Service (ADDS)

Output produced by METARs form (1734 UTC 07 July 2015)
found at http://aviationweather.gov/adds/metars/
 
KBUF 071730Z 0718/0818 23015G22KT P6SM SCT250 
     FM072100 24012G21KT 3SM -TSRA BKN035CB 
     FM080000 24011KT 3SM -SHRA OVC015 
     FM080300 28008KT 3SM -SHRA OVC012 
     FM080400 28008KT 5SM BR VCSH OVC012 
     FM080700 32008KT 5SM BR BKN012 
     FM081000 35007KT P6SM BKN090 
     FM081500 04007KT P6SM SCT250